Time;durP1;ratioP1;P1;durP2;ratioP2;P2;SDS_P1;SDS_P2;PMS_P1;PMS_P2;Temp;Humidity;BMP_temperature;BMP_pressure;BME280_temperature;BME280_humidity;BME280_pressure;Samples;Min_cycle;Max_cycle;Signal;HPM_P1;HPM_P2
2020/12/08 00:02:17;;;;;;;2.17;1.98;;;7.00;99.90;;;;;;5035563;28;20030;-81
2020/12/08 00:04:43;;;;;;;1.50;1.40;;;7.00;99.90;;;;;;5029789;28;20029;-81
2020/12/08 00:07:09;;;;;;;1.40;1.30;;;7.00;99.90;;;;;;5045559;28;20120;-81
2020/12/08 00:09:39;;;;;;;2.45;1.25;;;7.10;99.90;;;;;;5050786;28;20392;-81
2020/12/08 00:12:06;;;;;;;1.50;0.93;;;7.10;99.90;;;;;;5050525;28;20511;-81
2020/12/08 00:14:31;;;;;;;1.85;1.20;;;7.10;99.90;;;;;;5050657;28;20536;-81
2020/12/08 00:16:57;;;;;;;2.40;0.80;;;7.20;99.90;;;;;;5050623;28;20029;-81
2020/12/08 00:19:26;;;;;;;5.53;2.45;;;7.20;99.90;;;;;;5050595;28;20029;-81
2020/12/08 00:21:52;;;;;;;12.52;4.28;;;7.20;99.90;;;;;;5050304;28;20056;-81
2020/12/08 00:24:17;;;;;;;9.43;3.03;;;7.20;99.90;;;;;;5049570;28;20060;-81
2020/12/08 00:26:43;;;;;;;3.05;1.33;;;7.30;99.90;;;;;;5050562;28;20021;-81
2020/12/08 00:29:09;;;;;;;5.20;2.17;;;7.30;99.90;;;;;;5050379;28;20029;-81
2020/12/08 00:31:36;;;;;;;6.40;1.33;;;7.30;99.90;;;;;;5050030;28;20025;-80
2020/12/08 00:34:02;;;;;;;2.88;1.00;;;7.30;99.90;;;;;;5029423;28;20030;-81
2020/12/08 00:36:30;;;;;;;4.93;1.52;;;7.30;99.90;;;;;;5030521;28;20569;-81
2020/12/08 00:38:56;;;;;;;2.47;1.30;;;7.30;99.90;;;;;;5030418;28;20495;-81
2020/12/08 00:41:22;;;;;;;1.55;1.10;;;7.30;99.90;;;;;;5031999;28;20108;-80
2020/12/08 00:43:50;;;;;;;1.05;0.95;;;7.30;99.90;;;;;;5050256;28;20060;-81
2020/12/08 00:46:17;;;;;;;2.55;0.90;;;7.20;99.90;;;;;;5048941;28;20032;-80
2020/12/08 00:48:43;;;;;;;7.57;1.10;;;7.20;99.90;;;;;;5050204;28;20025;-81
2020/12/08 00:51:09;;;;;;;2.38;0.90;;;7.30;99.90;;;;;;5050095;28;20032;-81
2020/12/08 00:53:35;;;;;;;4.50;1.15;;;7.30;99.90;;;;;;5048935;28;20033;-80
2020/12/08 00:56:06;;;;;;;0.80;0.80;;;7.40;99.90;;;;;;5049892;28;20503;-81
2020/12/08 00:58:32;;;;;;;2.47;0.73;;;7.40;99.90;;;;;;5048908;28;20032;-81
2020/12/08 01:00:58;;;;;;;1.10;0.93;;;7.30;99.90;;;;;;5049689;28;20381;-81
2020/12/08 01:03:23;;;;;;;1.65;0.80;;;7.30;99.90;;;;;;5049869;28;20511;-80
2020/12/08 01:05:49;;;;;;;3.17;0.90;;;7.30;99.90;;;;;;5121137;27;20027;-81
2020/12/08 01:08:15;;;;;;;2.10;0.90;;;7.30;99.90;;;;;;5122597;27;20013;-81
2020/12/08 01:10:40;;;;;;;1.75;0.88;;;7.30;99.90;;;;;;5049829;28;20101;-81
2020/12/08 01:13:06;;;;;;;2.00;0.75;;;7.30;99.90;;;;;;5049557;28;20063;-81
2020/12/08 01:15:32;;;;;;;0.82;0.75;;;7.30;99.90;;;;;;5049844;28;20047;-81
2020/12/08 01:17:57;;;;;;;2.28;0.80;;;7.40;99.90;;;;;;5049583;28;20036;-81
2020/12/08 01:20:23;;;;;;;0.70;0.70;;;7.40;99.90;;;;;;5049669;28;20387;-80
2020/12/08 01:22:51;;;;;;;2.83;0.70;;;7.40;99.90;;;;;;5049489;28;20036;-81
2020/12/08 01:25:17;;;;;;;1.25;0.90;;;7.40;99.90;;;;;;5049724;28;20021;-81
2020/12/08 01:27:42;;;;;;;2.63;0.88;;;7.40;99.90;;;;;;5049859;28;20100;-81
2020/12/08 01:30:08;;;;;;;2.13;1.00;;;7.40;99.90;;;;;;5049391;28;20059;-81
2020/12/08 01:32:34;;;;;;;4.47;0.85;;;7.40;99.90;;;;;;5048181;28;20100;-81
2020/12/08 01:34:59;;;;;;;1.67;0.82;;;7.50;99.90;;;;;;5049351;28;20522;-81
2020/12/08 01:37:25;;;;;;;3.15;0.80;;;7.50;99.90;;;;;;5052822;28;20025;-80
2020/12/08 01:39:54;;;;;;;4.43;1.05;;;7.50;99.90;;;;;;5053043;28;20425;-81
2020/12/08 01:42:19;;;;;;;3.65;1.13;;;7.50;99.90;;;;;;5052975;28;20030;-81
2020/12/08 01:44:46;;;;;;;0.65;0.65;;;7.50;99.90;;;;;;5053049;28;20032;-81
2020/12/08 01:47:14;;;;;;;1.85;0.80;;;7.40;99.90;;;;;;5053044;28;20476;-81
2020/12/08 01:49:40;;;;;;;1.30;0.80;;;7.50;99.90;;;;;;5051749;28;20052;-81
2020/12/08 01:52:06;;;;;;;3.50;0.60;;;7.50;99.90;;;;;;5052796;28;20064;-80
2020/12/08 01:54:32;;;;;;;0.80;0.80;;;7.50;99.90;;;;;;5051695;28;20032;-81
2020/12/08 01:56:58;;;;;;;2.47;0.70;;;7.50;99.90;;;;;;5052824;28;20029;-81
2020/12/08 01:59:24;;;;;;;1.63;1.00;;;7.50;99.90;;;;;;5052803;28;20101;-81
2020/12/08 02:01:49;;;;;;;2.60;0.80;;;7.50;99.90;;;;;;5052734;28;20476;-81
2020/12/08 02:04:15;;;;;;;1.10;0.75;;;7.50;99.90;;;;;;5052196;28;20053;-81
2020/12/08 02:06:41;;;;;;;2.97;0.75;;;7.50;99.90;;;;;;5052355;28;20029;-81
2020/12/08 02:09:07;;;;;;;5.55;1.85;;;7.50;99.90;;;;;;5052499;28;20033;-80
2020/12/08 02:11:32;;;;;;;2.63;1.15;;;7.50;99.90;;;;;;5052338;28;20042;-81
2020/12/08 02:13:58;;;;;;;3.00;0.95;;;7.50;99.90;;;;;;5051431;28;20032;-81
2020/12/08 02:16:23;;;;;;;1.40;0.80;;;7.40;99.90;;;;;;5052566;28;20028;-81
2020/12/08 02:18:49;;;;;;;0.98;0.40;;;7.50;99.90;;;;;;5052498;28;20044;-81
2020/12/08 02:21:16;;;;;;;0.70;0.70;;;7.60;99.90;;;;;;5052318;28;20408;-81
2020/12/08 02:23:54;;;;;;;0.50;0.50;;;7.60;99.90;;;;;;5052385;28;20021;-81
2020/12/08 02:26:20;;;;;;;0.30;0.30;;;7.60;99.90;;;;;;5051205;28;20017;-81
2020/12/08 02:28:45;;;;;;;1.65;0.93;;;7.60;99.90;;;;;;5050842;28;20025;-81
2020/12/08 02:31:11;;;;;;;1.55;0.57;;;7.60;99.90;;;;;;5052339;28;20017;-81
2020/12/08 02:33:37;;;;;;;0.82;0.70;;;7.60;99.90;;;;;;5052081;28;20036;-81
2020/12/08 02:36:02;;;;;;;2.20;0.70;;;7.60;99.90;;;;;;5052370;28;20025;-81
2020/12/08 02:38:28;;;;;;;1.48;0.70;;;7.50;99.90;;;;;;5052212;28;20050;-81
2020/12/08 02:40:54;;;;;;;1.70;0.60;;;7.50;99.90;;;;;;5052102;28;20518;-80
2020/12/08 02:43:21;;;;;;;1.30;0.60;;;7.40;99.90;;;;;;5052159;28;20053;-80
2020/12/08 02:45:47;;;;;;;2.20;0.50;;;7.30;99.90;;;;;;5052000;28;20100;-81
2020/12/08 02:48:12;;;;;;;1.45;0.70;;;7.30;99.90;;;;;;5051367;28;20424;-81
2020/12/08 02:50:38;;;;;;;4.97;0.75;;;7.30;99.90;;;;;;5051873;28;20103;-81
2020/12/08 02:53:04;;;;;;;0.60;0.60;;;7.30;99.90;;;;;;5050805;28;20056;-81
2020/12/08 02:55:30;;;;;;;1.67;0.63;;;7.20;99.90;;;;;;5062784;27;20029;-81
2020/12/08 02:57:56;;;;;;;1.70;0.80;;;7.20;99.90;;;;;;5156023;27;20450;-81
2020/12/08 03:00:21;;;;;;;1.23;0.80;;;7.20;99.90;;;;;;5129552;27;20056;-80
2020/12/08 03:02:47;;;;;;;0.70;0.70;;;7.20;99.90;;;;;;5051685;28;20040;-80
2020/12/08 03:05:12;;;;;;;1.48;1.25;;;7.20;99.90;;;;;;5051912;28;20021;-81
2020/12/08 03:07:39;;;;;;;2.85;0.73;;;7.20;99.90;;;;;;5050552;28;20476;-80
2020/12/08 03:10:05;;;;;;;0.57;0.40;;;7.30;99.90;;;;;;5051789;28;20021;-81
2020/12/08 03:12:31;;;;;;;1.85;0.68;;;7.30;99.90;;;;;;5051255;28;20045;-80
2020/12/08 03:14:57;;;;;;;1.20;0.95;;;7.30;99.90;;;;;;5051688;28;20032;-80
2020/12/08 03:17:26;;;;;;;0.90;0.65;;;7.40;99.90;;;;;;5051524;28;20437;-81
2020/12/08 03:19:51;;;;;;;0.47;0.47;;;7.40;99.90;;;;;;5051505;28;20029;-81
2020/12/08 03:22:17;;;;;;;1.33;0.60;;;7.40;99.90;;;;;;5051515;28;20025;-81
2020/12/08 03:24:43;;;;;;;2.45;0.55;;;7.40;99.90;;;;;;5051508;28;20693;-81
2020/12/08 03:27:08;;;;;;;0.55;0.55;;;7.40;99.90;;;;;;5051573;28;20024;-81
2020/12/08 03:29:34;;;;;;;0.45;0.45;;;7.40;99.90;;;;;;5050875;28;20021;-81
2020/12/08 03:32:00;;;;;;;0.82;0.40;;;7.40;99.90;;;;;;5051230;28;20039;-81
2020/12/08 03:34:25;;;;;;;1.17;0.55;;;7.40;99.90;;;;;;5050214;28;20384;-81
2020/12/08 03:36:51;;;;;;;0.50;0.50;;;7.40;99.90;;;;;;5051335;28;20025;-81
2020/12/08 03:39:17;;;;;;;0.60;0.50;;;7.40;99.90;;;;;;5051217;28;20025;-81
2020/12/08 03:41:44;;;;;;;1.95;0.68;;;7.40;99.90;;;;;;5051271;28;20082;-81
2020/12/08 03:44:10;;;;;;;0.68;0.68;;;7.30;99.90;;;;;;5051196;28;20079;-81
2020/12/08 03:46:36;;;;;;;0.90;0.47;;;7.30;99.90;;;;;;5051081;28;20499;-81
2020/12/08 03:49:02;;;;;;;0.70;0.70;;;7.30;99.90;;;;;;5051012;28;20029;-80
2020/12/08 03:51:28;;;;;;;0.50;0.50;;;7.30;99.90;;;;;;5050594;28;20037;-81
2020/12/08 03:53:53;;;;;;;0.52;0.52;;;7.30;99.90;;;;;;5051007;28;20503;-81
2020/12/08 03:56:20;;;;;;;0.65;0.55;;;7.30;99.90;;;;;;5050799;28;20040;-81
2020/12/08 03:58:46;;;;;;;0.50;0.50;;;7.40;99.90;;;;;;5050905;28;20032;-81
2020/12/08 04:01:17;;;;;;;1.10;0.77;;;7.40;99.90;;;;;;5050740;28;20031;-81
2020/12/08 04:03:44;;;;;;;1.17;0.60;;;7.40;99.90;;;;;;5049625;28;20053;-81
2020/12/08 04:06:12;;;;;;;0.70;0.70;;;7.40;99.90;;;;;;5049627;28;20116;-81
2020/12/08 04:08:41;;;;;;;0.68;0.60;;;7.40;99.90;;;;;;5050741;28;20009;-81
2020/12/08 04:11:07;;;;;;;0.80;0.77;;;7.40;99.90;;;;;;5049500;28;20388;-81
2020/12/08 04:13:33;;;;;;;0.75;0.73;;;7.40;99.90;;;;;;5050671;28;20055;-81
2020/12/08 04:15:59;;;;;;;0.60;0.60;;;7.30;99.90;;;;;;5049476;28;20060;-81
2020/12/08 04:18:25;;;;;;;0.40;0.40;;;7.30;99.90;;;;;;5049343;28;20147;-81
2020/12/08 04:20:50;;;;;;;0.47;0.47;;;7.30;99.90;;;;;;5049410;28;20033;-81
2020/12/08 04:23:18;;;;;;;0.40;0.40;;;7.40;99.90;;;;;;5050613;28;20036;-81
2020/12/08 04:25:44;;;;;;;0.50;0.50;;;7.50;99.90;;;;;;5050260;28;20039;-81
2020/12/08 04:28:10;;;;;;;1.85;0.50;;;7.50;99.90;;;;;;5050444;28;20528;-80
2020/12/08 04:30:39;;;;;;;1.42;0.68;;;7.50;99.90;;;;;;5049092;28;20024;-81
2020/12/08 04:33:06;;;;;;;1.27;0.70;;;7.40;99.90;;;;;;5030715;28;20037;-81
2020/12/08 04:35:32;;;;;;;0.60;0.60;;;7.30;99.90;;;;;;5029366;28;20036;-81
2020/12/08 04:37:58;;;;;;;0.57;0.50;;;7.30;99.90;;;;;;5030566;28;20025;-81
2020/12/08 04:40:24;;;;;;;0.47;0.47;;;7.40;99.90;;;;;;5036529;28;20039;-81
2020/12/08 04:42:54;;;;;;;0.55;0.47;;;7.30;99.90;;;;;;5050213;28;20068;-81
2020/12/08 04:45:21;;;;;;;0.55;0.55;;;7.40;99.90;;;;;;5049021;28;20525;-81
2020/12/08 04:47:47;;;;;;;0.88;0.88;;;7.40;99.90;;;;;;5050202;28;20018;-81
2020/12/08 04:50:16;;;;;;;0.85;0.85;;;7.40;99.90;;;;;;5049930;28;20013;-81
2020/12/08 04:52:42;;;;;;;0.80;0.80;;;7.40;99.90;;;;;;5050053;28;20032;-81
2020/12/08 04:55:08;;;;;;;0.80;0.80;;;7.40;99.90;;;;;;5050145;28;20082;-81
2020/12/08 04:57:34;;;;;;;0.60;0.60;;;7.40;99.90;;;;;;5050127;28;20438;-81
2020/12/08 05:00:11;;;;;;;0.60;0.60;;;7.40;99.90;;;;;;5049961;28;20040;-81
2020/12/08 05:02:46;;;;;;;0.85;0.73;;;7.40;99.90;;;;;;5048687;28;20037;-81
2020/12/08 05:05:12;;;;;;;0.40;0.40;;;7.40;99.90;;;;;;5048801;28;20025;-81
2020/12/08 05:07:38;;;;;;;0.40;0.40;;;7.30;99.90;;;;;;5048722;28;20040;-81
2020/12/08 05:10:04;;;;;;;0.50;0.50;;;7.40;99.90;;;;;;5049231;28;20025;-81
2020/12/08 05:12:29;;;;;;;0.50;0.30;;;7.40;99.90;;;;;;5049653;28;20049;-80
2020/12/08 05:14:55;;;;;;;0.40;0.40;;;7.40;99.90;;;;;;5049879;28;20116;-81
2020/12/08 05:17:22;;;;;;;2.75;0.35;;;7.50;99.90;;;;;;5049905;28;20057;-81
2020/12/08 05:19:48;;;;;;;0.40;0.40;;;7.40;99.90;;;;;;5048208;28;20033;-81
2020/12/08 05:22:14;;;;;;;0.40;0.40;;;7.40;99.90;;;;;;5049587;28;20449;-81
2020/12/08 05:24:40;;;;;;;0.50;0.50;;;7.40;99.90;;;;;;5048484;28;20040;-81
2020/12/08 05:27:07;;;;;;;0.30;0.30;;;7.40;99.90;;;;;;5048436;28;20544;-81
2020/12/08 05:29:35;;;;;;;0.40;0.40;;;7.30;99.90;;;;;;5049385;28;20021;-80
2020/12/08 05:32:29;;;;;;;0.40;0.40;;;7.30;99.90;;;;;;5049673;28;20025;-81
2020/12/08 05:34:55;;;;;;;2.22;0.40;;;7.30;99.90;;;;;;5049515;28;20022;-81
2020/12/08 05:37:21;;;;;;;0.55;0.22;;;7.30;99.90;;;;;;5049644;28;20017;-81
2020/12/08 05:39:48;;;;;;;0.40;0.40;;;7.20;99.90;;;;;;5049274;28;20037;-81
2020/12/08 05:42:18;;;;;;;0.30;0.30;;;7.20;99.90;;;;;;5049457;28;20024;-81
2020/12/08 05:44:49;;;;;;;0.43;0.43;;;7.10;99.90;;;;;;5049570;28;20029;-81
2020/12/08 05:47:19;;;;;;;0.70;0.30;;;7.10;99.90;;;;;;5047965;28;20174;-81
2020/12/08 05:49:46;;;;;;;0.30;0.30;;;7.10;99.90;;;;;;5049453;28;20029;-82
2020/12/08 05:52:17;;;;;;;0.60;0.55;;;7.10;99.90;;;;;;5049485;28;20392;-81
2020/12/08 05:54:43;;;;;;;0.65;0.65;;;7.10;99.90;;;;;;5049527;28;20113;-81
2020/12/08 05:57:15;;;;;;;1.10;0.50;;;7.10;99.90;;;;;;5049057;28;20487;-81
2020/12/08 05:59:41;;;;;;;0.77;0.60;;;7.00;99.90;;;;;;5049240;28;20032;-82
2020/12/08 06:02:08;;;;;;;1.70;0.40;;;7.10;99.90;;;;;;5049259;28;20029;-82
2020/12/08 06:04:43;;;;;;;0.40;0.40;;;7.10;99.90;;;;;;5049254;28;20123;-82
2020/12/08 06:07:09;;;;;;;1.45;0.50;;;7.10;99.90;;;;;;5049205;28;20368;-82
2020/12/08 06:09:35;;;;;;;1.15;0.52;;;7.10;99.90;;;;;;5049144;28;20024;-82
2020/12/08 06:12:13;;;;;;;2.90;0.60;;;7.10;99.90;;;;;;5049035;28;20046;-82
2020/12/08 06:14:39;;;;;;;0.57;0.55;;;7.10;99.90;;;;;;5048860;28;20080;-82
2020/12/08 06:17:08;;;;;;;1.05;0.82;;;7.10;99.90;;;;;;5049155;28;20037;-82
2020/12/08 06:19:34;;;;;;;0.40;0.40;;;7.10;99.90;;;;;;5048593;28;20061;-82
2020/12/08 06:22:09;;;;;;;0.47;0.47;;;7.10;99.90;;;;;;5050056;28;20029;-82
2020/12/08 06:24:35;;;;;;;0.85;0.80;;;7.00;99.90;;;;;;5051283;28;20025;-82
2020/12/08 06:27:01;;;;;;;0.40;0.40;;;7.10;99.90;;;;;;5052380;28;20031;-82
2020/12/08 06:29:26;;;;;;;0.60;0.60;;;7.10;99.90;;;;;;5051982;28;20556;-82
2020/12/08 06:31:52;;;;;;;1.08;0.60;;;7.10;99.90;;;;;;5041835;28;20021;-82
2020/12/08 06:34:25;;;;;;;0.45;0.45;;;7.00;99.90;;;;;;5032463;28;20112;-82
2020/12/08 06:36:51;;;;;;;0.60;0.60;;;7.10;99.90;;;;;;5032318;28;20053;-82
2020/12/08 06:39:17;;;;;;;0.35;0.35;;;7.10;99.90;;;;;;5032297;28;20063;-82
2020/12/08 06:41:44;;;;;;;0.55;0.55;;;7.00;99.90;;;;;;5032193;28;20065;-82
2020/12/08 06:44:20;;;;;;;0.63;0.63;;;7.10;99.90;;;;;;5046297;28;20036;-82
2020/12/08 06:46:58;;;;;;;1.23;0.40;;;7.10;99.90;;;;;;5032296;28;20021;-82
2020/12/08 06:49:34;;;;;;;0.47;0.47;;;7.10;99.90;;;;;;5030764;28;20031;-81
2020/12/08 06:52:00;;;;;;;0.50;0.50;;;7.10;99.90;;;;;;5032034;28;20018;-81
2020/12/08 06:54:26;;;;;;;0.52;0.52;;;7.10;99.90;;;;;;5032047;28;20029;-82
2020/12/08 06:56:58;;;;;;;0.50;0.50;;;7.00;99.90;;;;;;5030905;28;20041;-82
2020/12/08 06:59:25;;;;;;;0.50;0.50;;;7.10;99.90;;;;;;5030703;28;20029;-82
2020/12/08 07:01:52;;;;;;;0.68;0.65;;;7.00;99.90;;;;;;5042178;28;20540;-82
2020/12/08 07:04:19;;;;;;;2.60;0.88;;;7.00;99.90;;;;;;5049567;28;20044;-82
2020/12/08 07:06:45;;;;;;;0.85;0.85;;;7.10;99.90;;;;;;5051174;28;20025;-82
2020/12/08 07:09:11;;;;;;;0.40;0.40;;;7.00;99.90;;;;;;5051398;28;20515;-82
2020/12/08 07:11:37;;;;;;;0.77;0.68;;;7.10;99.90;;;;;;5047981;28;20373;-82
2020/12/08 07:14:07;;;;;;;0.70;0.70;;;7.10;99.90;;;;;;5031666;28;20026;-82
2020/12/08 07:16:34;;;;;;;0.80;0.80;;;7.10;99.90;;;;;;5030373;28;20492;-82
2020/12/08 07:19:01;;;;;;;0.80;0.80;;;7.10;99.90;;;;;;5031732;28;20112;-81
2020/12/08 07:21:27;;;;;;;1.23;0.77;;;7.10;99.90;;;;;;5050597;28;20103;-82
2020/12/08 07:23:54;;;;;;;0.75;0.75;;;7.10;99.90;;;;;;5050788;28;20464;-82
2020/12/08 07:26:28;;;;;;;0.95;0.60;;;7.00;99.90;;;;;;5050788;28;20033;-82
2020/12/08 07:28:55;;;;;;;0.75;0.60;;;7.00;99.90;;;;;;5050612;28;20452;-81
2020/12/08 07:31:26;;;;;;;0.50;0.50;;;7.00;99.90;;;;;;5050645;28;20021;-82
2020/12/08 07:33:52;;;;;;;1.42;0.70;;;7.00;99.90;;;;;;5048819;28;20029;-81
2020/12/08 07:36:28;;;;;;;0.50;0.50;;;7.00;99.90;;;;;;5050649;28;20100;-82
2020/12/08 07:38:55;;;;;;;0.40;0.40;;;7.00;99.90;;;;;;5050082;28;20479;-82
2020/12/08 07:41:22;;;;;;;0.38;0.38;;;7.00;99.90;;;;;;5049649;28;20033;-82
2020/12/08 07:43:48;;;;;;;0.55;0.55;;;7.00;99.90;;;;;;5049774;28;20556;-82
2020/12/08 07:46:27;;;;;;;0.30;0.30;;;7.00;99.90;;;;;;5051174;28;20029;-82
2020/12/08 07:49:07;;;;;;;0.45;0.45;;;7.10;99.90;;;;;;5051104;28;20103;-81
2020/12/08 07:51:35;;;;;;;0.40;0.40;;;7.30;99.90;;;;;;5049982;28;20026;-82
2020/12/08 07:54:02;;;;;;;2.28;0.50;;;7.80;99.90;;;;;;5051156;28;20115;-82
2020/12/08 07:56:32;;;;;;;1.55;0.65;;;8.10;99.90;;;;;;5051019;28;20025;-82
2020/12/08 07:58:59;;;;;;;0.45;0.45;;;8.20;99.90;;;;;;5045605;28;20380;-81
2020/12/08 08:01:25;;;;;;;0.50;0.50;;;8.40;99.90;;;;;;5038414;28;20033;-80
2020/12/08 08:03:51;;;;;;;0.75;0.75;;;8.50;99.90;;;;;;5050771;28;20029;-80
2020/12/08 08:06:18;;;;;;;0.50;0.50;;;8.70;99.90;;;;;;5134153;27;20078;-80
2020/12/08 08:08:45;;;;;;;0.68;0.68;;;8.70;99.90;;;;;;5153410;27;20022;-80
2020/12/08 08:11:11;;;;;;;0.32;0.32;;;8.80;99.90;;;;;;5048901;28;20029;-81
2020/12/08 08:13:36;;;;;;;0.50;0.50;;;8.40;99.90;;;;;;5050460;28;20424;-82
2020/12/08 08:16:02;;;;;;;0.50;0.50;;;8.10;99.90;;;;;;5049406;28;20113;-83
2020/12/08 08:18:31;;;;;;;0.50;0.50;;;7.80;99.90;;;;;;5049262;28;20702;-83
2020/12/08 08:21:00;;;;;;;0.50;0.50;;;7.60;99.90;;;;;;5050466;28;20036;-83
2020/12/08 08:23:25;;;;;;;0.35;0.35;;;7.60;99.90;;;;;;5050494;28;20057;-82
2020/12/08 08:25:54;;;;;;;0.50;0.50;;;7.40;99.90;;;;;;5050742;28;20074;-83
2020/12/08 08:28:20;;;;;;;1.10;1.00;;;7.30;99.90;;;;;;5050595;28;20472;-83
2020/12/08 08:30:45;;;;;;;0.50;0.40;;;7.20;99.90;;;;;;5049329;28;20028;-83
2020/12/08 08:33:11;;;;;;;0.40;0.40;;;7.20;99.90;;;;;;5050392;28;20029;-83
2020/12/08 08:35:37;;;;;;;0.65;0.47;;;7.30;99.90;;;;;;5049219;28;20068;-83
2020/12/08 08:38:03;;;;;;;0.50;0.50;;;7.30;99.90;;;;;;5050533;28;20036;-83
2020/12/08 08:40:29;;;;;;;0.40;0.40;;;7.20;99.90;;;;;;5050362;28;20079;-83
2020/12/08 08:42:55;;;;;;;0.40;0.40;;;7.20;99.90;;;;;;5049092;28;20025;-84
2020/12/08 08:45:21;;;;;;;0.25;0.25;;;7.10;99.90;;;;;;5049543;28;20113;-83
2020/12/08 08:47:47;;;;;;;0.70;0.30;;;7.30;99.90;;;;;;5050277;28;20025;-83
2020/12/08 08:50:13;;;;;;;0.40;0.40;;;7.40;99.90;;;;;;5048925;28;20036;-83
2020/12/08 08:52:39;;;;;;;0.52;0.50;;;7.40;99.90;;;;;;5049201;28;20025;-84
2020/12/08 08:55:05;;;;;;;0.50;0.50;;;7.40;99.90;;;;;;5050243;28;20040;-83
2020/12/08 08:57:30;;;;;;;0.60;0.60;;;7.30;99.90;;;;;;5050681;27;20025;-84
2020/12/08 08:59:56;;;;;;;0.50;0.50;;;7.30;99.90;;;;;;5037947;28;20032;-83
2020/12/08 09:02:22;;;;;;;0.50;0.50;;;7.20;99.90;;;;;;5050084;28;20029;-83
2020/12/08 09:04:47;;;;;;;0.50;0.50;;;7.10;99.90;;;;;;5050085;28;20416;-83
2020/12/08 09:07:13;;;;;;;0.47;0.40;;;7.10;99.90;;;;;;5049966;28;20488;-83
2020/12/08 09:09:39;;;;;;;0.50;0.50;;;7.10;99.90;;;;;;5042151;28;20387;-82
2020/12/08 09:12:04;;;;;;;0.50;0.50;;;7.10;99.90;;;;;;5049610;28;20049;-83
2020/12/08 09:14:31;;;;;;;0.45;0.45;;;7.10;99.90;;;;;;5048104;28;20025;-82
2020/12/08 09:16:58;;;;;;;2.28;1.95;;;7.10;99.90;;;;;;5049830;28;20049;-83
2020/12/08 09:19:24;;;;;;;2.63;1.30;;;7.10;99.90;;;;;;5049626;28;20082;-82
2020/12/08 09:21:55;;;;;;;0.50;0.50;;;7.10;99.90;;;;;;5049943;28;20021;-83
2020/12/08 09:24:24;;;;;;;0.60;0.60;;;7.20;99.90;;;;;;5044505;28;20115;-83
2020/12/08 09:26:50;;;;;;;2.45;0.80;;;7.10;99.90;;;;;;5045499;28;20491;-83
2020/12/08 09:29:16;;;;;;;0.85;0.80;;;7.10;99.90;;;;;;5049444;28;20038;-83
2020/12/08 09:31:42;;;;;;;0.93;0.90;;;7.10;99.90;;;;;;5049624;28;20036;-84
2020/12/08 09:34:07;;;;;;;3.88;2.58;;;7.10;99.90;;;;;;5048394;28;20498;-83
2020/12/08 09:36:34;;;;;;;3.80;1.02;;;7.10;99.90;;;;;;5048019;28;20026;-83
2020/12/08 09:39:00;;;;;;;0.80;0.80;;;7.10;99.90;;;;;;5043902;28;20025;-83
2020/12/08 09:41:26;;;;;;;2.10;1.98;;;7.10;99.90;;;;;;5048163;28;20033;-83
2020/12/08 09:43:51;;;;;;;1.30;1.20;;;7.10;99.90;;;;;;5034789;28;20037;-83
2020/12/08 09:46:17;;;;;;;1.52;1.42;;;7.20;99.90;;;;;;5030448;28;20029;-83
2020/12/08 09:48:43;;;;;;;0.45;0.45;;;7.20;99.90;;;;;;5049357;28;20428;-83
2020/12/08 09:51:08;;;;;;;3.72;1.70;;;7.20;99.90;;;;;;5048982;28;20052;-83
2020/12/08 09:53:34;;;;;;;1.92;1.70;;;7.20;99.90;;;;;;5049113;28;20017;-82
2020/12/08 09:56:00;;;;;;;0.70;0.70;;;7.20;99.90;;;;;;5049993;28;20399;-83
2020/12/08 09:58:25;;;;;;;2.58;1.40;;;7.20;99.90;;;;;;5051110;28;20017;-82
2020/12/08 10:00:51;;;;;;;0.90;0.90;;;7.20;99.90;;;;;;5051649;28;20079;-83
2020/12/08 10:03:20;;;;;;;0.52;0.52;;;7.20;99.90;;;;;;5051146;28;20036;-82
2020/12/08 10:05:45;;;;;;;2.35;2.15;;;7.20;99.90;;;;;;5052851;28;20021;-83
2020/12/08 10:08:11;;;;;;;1.83;1.50;;;7.20;99.90;;;;;;5052700;28;20028;-83
2020/12/08 10:10:36;;;;;;;0.55;0.55;;;7.20;99.90;;;;;;5051237;28;20035;-83
2020/12/08 10:13:05;;;;;;;0.80;0.80;;;7.20;99.90;;;;;;5050787;28;20041;-83
2020/12/08 10:15:33;;;;;;;0.95;0.95;;;7.20;99.90;;;;;;5052654;28;20063;-82
2020/12/08 10:17:59;;;;;;;0.50;0.50;;;7.20;99.90;;;;;;5052663;28;20024;-83
2020/12/08 10:20:24;;;;;;;0.60;0.60;;;7.20;99.90;;;;;;5051307;28;20025;-82
2020/12/08 10:22:50;;;;;;;0.60;0.60;;;7.20;99.90;;;;;;5051247;28;20553;-83
2020/12/08 10:25:16;;;;;;;0.65;0.65;;;7.30;99.90;;;;;;5052445;28;20461;-82
2020/12/08 10:27:42;;;;;;;0.60;0.60;;;7.20;99.90;;;;;;5052673;28;20056;-83
2020/12/08 10:30:08;;;;;;;0.73;0.73;;;7.20;99.90;;;;;;5051064;28;20069;-83
2020/12/08 10:32:34;;;;;;;0.90;0.90;;;7.10;99.90;;;;;;5052377;28;20574;-83
2020/12/08 10:35:01;;;;;;;2.08;1.98;;;7.10;99.90;;;;;;5052292;28;20107;-83
2020/12/08 10:37:27;;;;;;;2.97;2.78;;;7.20;99.90;;;;;;5052195;28;20029;-83
2020/12/08 10:39:52;;;;;;;1.50;1.40;;;7.20;99.90;;;;;;5050981;28;20032;-83
2020/12/08 10:42:18;;;;;;;2.08;1.98;;;7.20;99.90;;;;;;5050758;28;20029;-83
2020/12/08 10:44:44;;;;;;;2.22;2.03;;;7.30;99.90;;;;;;5051017;28;20025;-83
2020/12/08 10:47:09;;;;;;;10.35;6.82;;;7.30;99.90;;;;;;5052219;28;20074;-83
2020/12/08 10:49:35;;;;;;;1.85;1.75;;;7.30;99.90;;;;;;5052079;28;20013;-82
2020/12/08 10:52:01;;;;;;;2.63;2.00;;;7.30;99.90;;;;;;5051959;28;20472;-83
2020/12/08 10:54:26;;;;;;;1.55;1.30;;;7.30;99.90;;;;;;5050540;28;20104;-83
2020/12/08 10:56:52;;;;;;;1.95;1.80;;;7.40;99.90;;;;;;5050788;28;20481;-83
2020/12/08 10:59:18;;;;;;;3.38;1.13;;;7.30;99.90;;;;;;5051891;28;20036;-83
2020/12/08 11:01:43;;;;;;;1.50;1.40;;;7.30;99.90;;;;;;5051930;28;20052;-83
2020/12/08 11:04:09;;;;;;;3.13;2.47;;;7.40;99.90;;;;;;5051876;28;20084;-82
2020/12/08 11:06:35;;;;;;;6.65;4.75;;;7.30;99.90;;;;;;5050590;28;20028;-82
2020/12/08 11:09:01;;;;;;;2.90;2.03;;;7.30;99.90;;;;;;5049802;28;20059;-82
2020/12/08 11:11:28;;;;;;;1.90;1.80;;;7.30;99.90;;;;;;5051658;28;20361;-82
2020/12/08 11:13:55;;;;;;;1.52;1.42;;;7.30;99.90;;;;;;5051866;28;20025;-82
2020/12/08 11:16:22;;;;;;;3.25;1.20;;;7.30;99.90;;;;;;5050752;28;20024;-82
2020/12/08 11:18:51;;;;;;;2.00;1.48;;;7.30;99.90;;;;;;5049657;28;20036;-82
2020/12/08 11:21:24;;;;;;;1.77;1.67;;;7.30;99.90;;;;;;5051543;28;20080;-82
2020/12/08 11:23:50;;;;;;;1.98;1.80;;;7.30;99.90;;;;;;5065551;27;20375;-82
2020/12/08 11:26:16;;;;;;;1.02;1.02;;;7.30;99.90;;;;;;5042547;28;20046;-82
2020/12/08 11:28:41;;;;;;;1.02;1.00;;;7.30;99.90;;;;;;5051522;28;20025;-82
2020/12/08 11:31:07;;;;;;;1.45;1.17;;;7.30;99.90;;;;;;5051411;28;20021;-81
2020/12/08 11:33:33;;;;;;;0.60;0.60;;;7.20;99.90;;;;;;5050270;28;20020;-82
2020/12/08 11:35:59;;;;;;;1.73;1.27;;;7.20;99.90;;;;;;5051434;28;20124;-81
2020/12/08 11:38:25;;;;;;;1.38;1.15;;;7.20;99.90;;;;;;5063719;27;20593;-81
2020/12/08 11:40:51;;;;;;;0.77;0.77;;;7.10;99.90;;;;;;5063911;27;20014;-81
2020/12/08 11:43:17;;;;;;;1.10;1.00;;;7.10;99.90;;;;;;5044420;27;20026;-81
2020/12/08 11:45:43;;;;;;;1.20;1.10;;;7.10;99.90;;;;;;5032352;28;20036;-81
2020/12/08 11:48:08;;;;;;;1.50;1.40;;;7.10;99.90;;;;;;5092345;27;20097;-81
2020/12/08 11:50:34;;;;;;;3.80;3.40;;;7.10;99.90;;;;;;5140374;27;20884;-81
2020/12/08 11:53:00;;;;;;;1.95;1.80;;;7.10;99.90;;;;;;5051197;28;20081;-81
2020/12/08 11:55:26;;;;;;;2.30;2.10;;;7.10;99.90;;;;;;5051101;28;20033;-81
2020/12/08 11:57:51;;;;;;;3.75;3.17;;;7.10;99.90;;;;;;5049438;28;20085;-81
2020/12/08 12:00:17;;;;;;;3.35;2.97;;;7.10;99.90;;;;;;5049570;28;20047;-81
2020/12/08 12:02:43;;;;;;;1.63;1.48;;;7.10;99.90;;;;;;5049674;28;20501;-81
2020/12/08 12:05:09;;;;;;;8.07;4.72;;;7.10;99.90;;;;;;5049386;28;20047;-81
2020/12/08 12:07:35;;;;;;;2.08;1.98;;;7.00;99.90;;;;;;5049956;27;20036;-81
2020/12/08 12:10:01;;;;;;;4.97;4.00;;;7.10;99.90;;;;;;5072778;27;20465;-81
2020/12/08 12:12:27;;;;;;;3.53;2.28;;;7.10;99.90;;;;;;5029516;28;20093;-81
2020/12/08 12:14:52;;;;;;;1.50;1.40;;;7.10;99.90;;;;;;5033603;28;20116;-81
2020/12/08 12:17:18;;;;;;;3.22;1.50;;;7.10;99.90;;;;;;5049325;28;20525;-81
2020/12/08 12:19:44;;;;;;;1.40;1.40;;;7.10;99.90;;;;;;5043152;28;20028;-80
2020/12/08 12:22:09;;;;;;;1.70;1.60;;;7.10;99.90;;;;;;5031043;28;20022;-81
2020/12/08 12:24:35;;;;;;;1.73;1.63;;;7.10;99.90;;;;;;5050669;28;20089;-81
2020/12/08 12:27:01;;;;;;;1.65;1.55;;;7.10;99.90;;;;;;5049410;28;20109;-81
2020/12/08 12:29:26;;;;;;;2.60;2.40;;;7.20;99.90;;;;;;5034382;28;20030;-81
2020/12/08 12:31:52;;;;;;;5.07;3.40;;;7.10;99.90;;;;;;5030732;28;20426;-80
2020/12/08 12:34:18;;;;;;;2.22;1.77;;;7.20;99.90;;;;;;5043390;28;20440;-81
2020/12/08 12:36:48;;;;;;;3.95;2.97;;;7.10;99.90;;;;;;5049232;28;20025;-81
2020/12/08 12:39:14;;;;;;;1.30;1.25;;;7.10;99.90;;;;;;5050418;28;20392;-81
2020/12/08 12:41:39;;;;;;;1.95;1.77;;;7.00;99.90;;;;;;5050300;28;20025;-81
2020/12/08 12:44:05;;;;;;;4.47;3.42;;;7.00;99.90;;;;;;5050240;28;20029;-81
2020/12/08 12:46:30;;;;;;;6.80;3.60;;;7.10;99.90;;;;;;5047108;28;20445;-81
2020/12/08 12:48:56;;;;;;;3.10;2.38;;;7.00;99.90;;;;;;5030607;28;20036;-81
2020/12/08 12:51:23;;;;;;;4.40;4.00;;;7.00;99.90;;;;;;5030594;28;20101;-81
2020/12/08 12:53:49;;;;;;;6.70;5.60;;;7.00;99.90;;;;;;5029111;28;20029;-81
2020/12/08 12:56:19;;;;;;;7.05;5.53;;;6.90;99.90;;;;;;5044072;28;20400;-81